Time;durP1;ratioP1;P1;durP2;ratioP2;P2;SDS_P1;SDS_P2;PMS_P1;PMS_P2;Temp;Humidity;BMP_temperature;BMP_pressure;BME280_temperature;BME280_humidity;BME280_pressure;Samples;Min_cycle;Max_cycle;Signal;HPM_P1;HPM_P2
2023/05/04 00:02:15;;;;;;;5.73;2.53;;;5.70;99.90;;;;;;5061957;28;20212;-56
2023/05/04 00:04:42;;;;;;;7.53;2.67;;;5.70;99.90;;;;;;5082797;28;20221;-48
2023/05/04 00:07:11;;;;;;;3.17;2.60;;;5.70;99.90;;;;;;5084544;28;20242;-54
2023/05/04 00:09:37;;;;;;;3.73;2.40;;;5.70;99.90;;;;;;5067955;28;20274;-54
2023/05/04 00:12:05;;;;;;;5.30;2.87;;;5.70;99.90;;;;;;5077473;28;20575;-47
2023/05/04 00:14:32;;;;;;;6.73;2.83;;;5.70;99.90;;;;;;5067102;28;20218;-54
2023/05/04 00:16:59;;;;;;;3.53;2.70;;;5.60;99.90;;;;;;5063815;28;20237;-48
2023/05/04 00:19:26;;;;;;;4.10;2.63;;;5.60;99.90;;;;;;5074831;28;20208;-56
2023/05/04 00:21:53;;;;;;;7.77;3.07;;;5.60;99.90;;;;;;5082142;28;20197;-56
2023/05/04 00:24:21;;;;;;;4.67;2.87;;;5.60;99.90;;;;;;5067546;28;20202;-57
2023/05/04 00:26:48;;;;;;;5.13;2.67;;;5.50;99.90;;;;;;5082868;28;20297;-47
2023/05/04 00:29:14;;;;;;;4.80;2.60;;;5.50;99.90;;;;;;5083172;28;20282;-49
2023/05/04 00:31:41;;;;;;;5.57;2.93;;;5.40;99.90;;;;;;5065967;28;20202;-49
2023/05/04 00:34:08;;;;;;;3.97;2.33;;;5.40;99.90;;;;;;5074137;28;20233;-50
2023/05/04 00:36:35;;;;;;;4.10;2.90;;;5.40;99.90;;;;;;5077598;28;20202;-54
2023/05/04 00:39:02;;;;;;;7.23;2.50;;;5.40;99.90;;;;;;5065911;28;20267;-56
2023/05/04 00:41:31;;;;;;;3.73;2.77;;;5.40;99.90;;;;;;5083478;28;20280;-51
2023/05/04 00:43:58;;;;;;;4.17;2.60;;;5.40;99.90;;;;;;5082282;28;20327;-54
2023/05/04 00:46:26;;;;;;;2.87;2.40;;;5.30;99.90;;;;;;5078386;28;20202;-45
2023/05/04 00:48:53;;;;;;;3.77;2.57;;;5.30;99.90;;;;;;5059350;28;20225;-55
2023/05/04 00:51:23;;;;;;;3.73;2.80;;;5.20;99.90;;;;;;5071367;28;20547;-54
2023/05/04 00:53:50;;;;;;;3.50;2.70;;;5.20;99.90;;;;;;5076478;28;20204;-57
2023/05/04 00:56:20;;;;;;;5.37;2.77;;;5.10;99.90;;;;;;5075689;28;20196;-52
2023/05/04 00:58:50;;;;;;;4.77;3.53;;;5.10;99.90;;;;;;5084251;28;20214;-51
2023/05/04 01:01:17;;;;;;;4.70;2.80;;;5.10;99.90;;;;;;5074395;28;20995;-47
2023/05/04 01:03:44;;;;;;;5.10;2.90;;;5.10;99.90;;;;;;5060123;28;20206;-50
2023/05/04 01:06:23;;;;;;;4.67;2.73;;;5.10;99.90;;;;;;5066692;28;20285;-54
2023/05/04 01:08:57;;;;;;;4.30;2.67;;;5.10;99.90;;;;;;5081123;28;20216;-57
2023/05/04 01:11:32;;;;;;;5.70;3.40;;;5.10;99.90;;;;;;5067405;28;20571;-53
2023/05/04 01:14:01;;;;;;;7.33;3.13;;;5.00;99.90;;;;;;5082275;28;20234;-47
2023/05/04 01:16:29;;;;;;;5.93;3.23;;;5.00;99.90;;;;;;5073212;28;20668;-56
2023/05/04 01:18:55;;;;;;;5.27;3.00;;;5.00;99.90;;;;;;5055163;28;20275;-53
2023/05/04 01:21:22;;;;;;;7.03;3.63;;;5.00;99.90;;;;;;5071177;28;20224;-53
2023/05/04 01:23:51;;;;;;;5.37;2.90;;;4.90;99.90;;;;;;5083002;28;20213;-49
2023/05/04 01:26:23;;;;;;;4.57;3.30;;;4.90;99.90;;;;;;5068953;28;20205;-56
2023/05/04 01:28:59;;;;;;;4.00;3.20;;;4.90;99.90;;;;;;5082760;28;20209;-48
2023/05/04 01:31:28;;;;;;;3.77;3.10;;;4.90;99.90;;;;;;5069974;28;20548;-55
2023/05/04 01:33:55;;;;;;;7.13;2.90;;;4.80;99.90;;;;;;5070445;28;20890;-50
2023/05/04 01:36:23;;;;;;;4.60;2.87;;;4.80;99.90;;;;;;5061306;28;20297;-51
2023/05/04 01:38:53;;;;;;;9.03;3.57;;;4.80;99.90;;;;;;5075468;28;20969;-50
2023/05/04 01:41:21;;;;;;;6.60;2.97;;;4.80;99.90;;;;;;5072286;28;20291;-52
2023/05/04 01:43:48;;;;;;;4.20;3.00;;;4.80;99.90;;;;;;5082511;28;20189;-50
2023/05/04 01:46:15;;;;;;;6.50;3.83;;;4.80;99.90;;;;;;5070220;28;20201;-51
2023/05/04 01:48:43;;;;;;;7.37;3.40;;;4.80;99.90;;;;;;5070259;28;20290;-49
2023/05/04 01:51:10;;;;;;;3.27;2.87;;;4.70;99.90;;;;;;5063335;28;20607;-49
2023/05/04 01:53:36;;;;;;;4.33;3.00;;;4.60;99.90;;;;;;5074127;28;20225;-51
2023/05/04 01:56:05;;;;;;;8.67;3.43;;;4.60;99.90;;;;;;5075867;28;20221;-48
2023/05/04 01:58:32;;;;;;;5.13;2.83;;;4.50;99.90;;;;;;5071750;28;20209;-52
2023/05/04 02:01:00;;;;;;;6.10;3.27;;;4.50;99.90;;;;;;5074082;28;20194;-54
2023/05/04 02:03:27;;;;;;;5.53;2.87;;;4.50;99.90;;;;;;5072326;28;20201;-49
2023/05/04 02:05:54;;;;;;;5.87;2.87;;;4.40;99.90;;;;;;5063738;28;20205;-51
2023/05/04 02:08:21;;;;;;;3.57;2.87;;;4.40;99.90;;;;;;5080840;28;20226;-54
2023/05/04 02:10:48;;;;;;;5.77;3.57;;;4.40;99.90;;;;;;5066773;28;20329;-53
2023/05/04 02:13:16;;;;;;;8.23;3.07;;;4.40;99.90;;;;;;5075538;28;20250;-51
2023/05/04 02:15:43;;;;;;;4.93;3.53;;;4.40;99.90;;;;;;5075719;28;20214;-50
2023/05/04 02:18:10;;;;;;;5.80;3.03;;;4.40;99.90;;;;;;5081744;28;20213;-47
2023/05/04 02:20:37;;;;;;;7.20;3.33;;;4.30;99.90;;;;;;5053336;28;20246;-46
2023/05/04 02:23:04;;;;;;;6.47;2.97;;;4.30;99.90;;;;;;5078110;28;20221;-51
2023/05/04 02:25:30;;;;;;;6.27;3.00;;;4.30;99.90;;;;;;5072512;28;20660;-49
2023/05/04 02:27:57;;;;;;;6.50;3.37;;;4.30;99.90;;;;;;5064541;28;20791;-51
2023/05/04 02:30:26;;;;;;;8.13;3.53;;;4.30;99.90;;;;;;5075972;28;20220;-54
2023/05/04 02:32:52;;;;;;;3.23;2.87;;;4.30;99.90;;;;;;5079572;28;20197;-54
2023/05/04 02:35:19;;;;;;;5.17;2.90;;;4.20;99.90;;;;;;5069381;28;20213;-45
2023/05/04 02:37:46;;;;;;;4.33;3.03;;;4.20;99.90;;;;;;5062856;28;20221;-53
2023/05/04 02:40:14;;;;;;;4.13;2.63;;;4.20;99.90;;;;;;5078102;28;20270;-52
2023/05/04 02:42:41;;;;;;;6.80;3.67;;;4.20;99.90;;;;;;5065466;28;20198;-52
2023/05/04 02:45:08;;;;;;;7.23;3.30;;;4.10;99.90;;;;;;5081338;28;20214;-52
2023/05/04 02:47:36;;;;;;;5.03;2.90;;;4.10;99.90;;;;;;5088295;28;20311;-49
2023/05/04 02:50:04;;;;;;;7.47;3.40;;;4.00;99.90;;;;;;5092463;28;20222;-53
2023/05/04 02:52:32;;;;;;;4.17;3.70;;;4.00;99.90;;;;;;5060905;28;20205;-51
2023/05/04 02:54:59;;;;;;;7.20;3.43;;;4.00;99.90;;;;;;5076666;28;20295;-53
2023/05/04 02:57:26;;;;;;;6.03;3.40;;;4.00;99.90;;;;;;5070146;28;20224;-53
2023/05/04 02:59:53;;;;;;;5.10;3.53;;;4.00;99.90;;;;;;5075780;28;20194;-50
2023/05/04 03:02:20;;;;;;;4.83;3.23;;;4.00;99.90;;;;;;5081457;28;20595;-55
2023/05/04 03:04:48;;;;;;;6.70;3.10;;;4.00;99.90;;;;;;5082621;28;20183;-53
2023/05/04 03:07:15;;;;;;;4.57;3.37;;;3.90;99.90;;;;;;5075139;28;20230;-48
2023/05/04 03:09:43;;;;;;;6.23;3.57;;;3.90;99.90;;;;;;5056813;28;20202;-54
2023/05/04 03:12:09;;;;;;;3.83;2.93;;;3.90;99.90;;;;;;5080254;28;20833;-48
2023/05/04 03:14:37;;;;;;;6.20;3.27;;;3.90;99.90;;;;;;5067465;28;22896;-51
2023/05/04 03:17:03;;;;;;;4.57;3.47;;;3.90;99.90;;;;;;5083143;28;20742;-51
2023/05/04 03:19:30;;;;;;;3.97;3.30;;;3.90;99.90;;;;;;5080333;28;20651;-48
2023/05/04 03:21:58;;;;;;;5.17;3.00;;;3.90;99.90;;;;;;5075286;28;20201;-51
2023/05/04 03:24:25;;;;;;;7.03;3.33;;;3.90;99.90;;;;;;5048574;28;20248;-52
2023/05/04 03:26:53;;;;;;;9.23;3.80;;;3.90;99.90;;;;;;5083393;28;20186;-48
2023/05/04 03:29:20;;;;;;;6.93;3.73;;;3.80;99.90;;;;;;5080082;28;20251;-51
2023/05/04 03:31:49;;;;;;;6.47;3.43;;;3.80;99.90;;;;;;5081391;28;20279;-53
2023/05/04 03:34:20;;;;;;;4.43;3.03;;;3.80;99.90;;;;;;5083738;28;20201;-53
2023/05/04 03:36:50;;;;;;;4.33;3.43;;;3.80;99.90;;;;;;5076557;28;20241;-52
2023/05/04 03:39:18;;;;;;;8.17;3.83;;;3.80;99.90;;;;;;5055046;28;20220;-51
2023/05/04 03:41:45;;;;;;;7.57;3.30;;;3.80;99.90;;;;;;5082603;28;20200;-55
2023/05/04 03:44:12;;;;;;;6.90;4.10;;;3.80;99.90;;;;;;5084410;28;20660;-51
2023/05/04 03:46:39;;;;;;;5.33;3.90;;;3.70;99.90;;;;;;5073503;28;20204;-54
2023/05/04 03:49:07;;;;;;;8.80;4.43;;;3.70;99.90;;;;;;5081362;28;20226;-50
2023/05/04 03:51:33;;;;;;;7.13;4.00;;;3.70;99.90;;;;;;5073463;28;20277;-50
2023/05/04 03:54:01;;;;;;;5.07;4.53;;;3.60;99.90;;;;;;5058421;28;20578;-49
2023/05/04 03:56:29;;;;;;;8.57;3.70;;;3.60;99.90;;;;;;5081463;28;20304;-50
2023/05/04 03:58:58;;;;;;;4.47;3.70;;;3.50;99.90;;;;;;5081790;28;20224;-54
2023/05/04 04:01:29;;;;;;;6.47;4.30;;;3.60;99.90;;;;;;5070700;28;20203;-50
2023/05/04 04:03:56;;;;;;;8.20;4.50;;;3.60;99.90;;;;;;5076897;28;21076;-54
2023/05/04 04:06:23;;;;;;;9.90;4.43;;;3.60;99.90;;;;;;5077042;28;20182;-52
2023/05/04 04:08:50;;;;;;;6.53;3.97;;;3.50;99.90;;;;;;5072968;28;20592;-55
2023/05/04 04:11:17;;;;;;;7.37;4.27;;;3.50;99.90;;;;;;5071290;28;20801;-53
2023/05/04 04:13:46;;;;;;;6.47;4.07;;;3.60;99.90;;;;;;5086143;28;20193;-47
2023/05/04 04:16:12;;;;;;;5.67;4.10;;;3.60;99.90;;;;;;5076688;28;20221;-50
2023/05/04 04:18:40;;;;;;;7.23;4.37;;;3.60;99.90;;;;;;5069169;28;20218;-49
2023/05/04 04:21:08;;;;;;;7.87;4.70;;;3.70;99.90;;;;;;5073096;28;20202;-52
2023/05/04 04:23:35;;;;;;;5.70;4.10;;;3.70;99.90;;;;;;5079611;28;20255;-50
2023/05/04 04:26:04;;;;;;;5.37;4.10;;;3.80;99.90;;;;;;5062220;28;20564;-51
2023/05/04 04:28:32;;;;;;;6.23;4.50;;;3.80;99.90;;;;;;5077909;28;20720;-48
2023/05/04 04:31:02;;;;;;;8.43;4.20;;;3.90;99.90;;;;;;5074186;28;20293;-53
2023/05/04 04:33:28;;;;;;;9.03;4.63;;;3.90;99.90;;;;;;5068058;28;20931;-53
2023/05/04 04:35:55;;;;;;;6.27;4.90;;;4.00;99.90;;;;;;5072283;28;20221;-53
2023/05/04 04:38:22;;;;;;;8.60;4.53;;;4.00;99.90;;;;;;5078717;28;20543;-49
2023/05/04 04:40:49;;;;;;;8.80;5.30;;;4.10;99.90;;;;;;5058759;28;20202;-54
2023/05/04 04:43:16;;;;;;;6.20;5.03;;;4.20;99.90;;;;;;5077242;28;20209;-49
2023/05/04 04:45:44;;;;;;;12.87;5.53;;;4.20;99.90;;;;;;5068235;28;20194;-51
2023/05/04 04:48:12;;;;;;;8.07;5.57;;;4.30;99.90;;;;;;5062174;28;20422;-54
2023/05/04 04:50:40;;;;;;;9.03;5.40;;;4.40;99.90;;;;;;5083920;28;20187;-51
2023/05/04 04:53:07;;;;;;;9.07;5.53;;;4.40;99.90;;;;;;5080927;28;20194;-49
2023/05/04 04:55:34;;;;;;;5.97;5.03;;;4.50;99.90;;;;;;5078662;28;20569;-48
2023/05/04 04:58:01;;;;;;;9.43;5.43;;;4.60;99.90;;;;;;5060946;28;20247;-47
2023/05/04 05:00:28;;;;;;;7.83;5.33;;;4.70;99.90;;;;;;5074370;28;20213;-52
2023/05/04 05:02:56;;;;;;;11.47;5.67;;;4.70;99.90;;;;;;5073317;28;20193;-53
2023/05/04 05:05:24;;;;;;;8.40;5.23;;;4.80;99.90;;;;;;5063348;28;20213;-55
2023/05/04 05:07:51;;;;;;;9.33;4.90;;;4.90;99.90;;;;;;5080316;28;20772;-54
2023/05/04 05:10:19;;;;;;;9.53;5.47;;;5.00;99.90;;;;;;5076321;28;20206;-49
2023/05/04 05:12:46;;;;;;;11.43;5.53;;;5.10;99.90;;;;;;5056665;28;20221;-52
2023/05/04 05:15:13;;;;;;;6.47;4.93;;;5.20;99.90;;;;;;5072776;28;20189;-52
2023/05/04 05:17:40;;;;;;;8.03;5.00;;;5.30;99.90;;;;;;5067741;28;20275;-55
2023/05/04 05:20:10;;;;;;;11.90;5.00;;;5.40;99.90;;;;;;5069975;28;20213;-50
2023/05/04 05:22:39;;;;;;;8.13;4.83;;;5.50;99.90;;;;;;5075365;28;20204;-52
2023/05/04 05:25:07;;;;;;;9.13;4.67;;;5.60;99.90;;;;;;5071254;28;20249;-53
2023/05/04 05:27:34;;;;;;;8.57;4.73;;;5.70;99.90;;;;;;5058324;28;20226;-50
2023/05/04 05:30:02;;;;;;;6.67;4.60;;;5.80;99.90;;;;;;5061170;28;20231;-55
2023/05/04 05:32:29;;;;;;;10.80;5.13;;;5.90;99.90;;;;;;5083499;28;20201;-52
2023/05/04 05:34:56;;;;;;;8.93;4.83;;;6.00;99.90;;;;;;5061949;28;21318;-54
2023/05/04 05:37:23;;;;;;;8.07;4.43;;;6.10;99.90;;;;;;5067028;28;20254;-51
2023/05/04 05:39:52;;;;;;;9.03;4.63;;;6.10;99.90;;;;;;5069433;28;20186;-54
2023/05/04 05:42:19;;;;;;;7.57;4.77;;;6.20;99.90;;;;;;5069388;28;20202;-53
2023/05/04 05:44:45;;;;;;;7.77;4.00;;;6.30;99.90;;;;;;5056948;28;20214;-51
2023/05/04 05:47:13;;;;;;;5.50;3.93;;;6.30;99.90;;;;;;5073709;28;20217;-49
2023/05/04 05:49:40;;;;;;;6.20;4.27;;;6.40;99.90;;;;;;5071594;28;20204;-55
2023/05/04 05:52:08;;;;;;;9.57;4.47;;;6.50;99.90;;;;;;5067644;28;20311;-48
2023/05/04 05:54:35;;;;;;;5.97;4.30;;;6.60;99.90;;;;;;5063737;28;20259;-50
2023/05/04 05:57:25;;;;;;;12.50;4.90;;;6.70;99.90;;;;;;5056536;28;20382;-52
2023/05/04 05:59:52;;;;;;;10.00;3.77;;;6.80;99.90;;;;;;5040119;28;20215;-49
2023/05/04 06:02:19;;;;;;;10.87;4.67;;;6.90;99.90;;;;;;5079600;28;20200;-47
2023/05/04 06:04:47;;;;;;;10.40;4.13;;;7.00;99.90;;;;;;5066254;28;20212;-50
2023/05/04 06:07:14;;;;;;;5.60;3.80;;;7.10;99.90;;;;;;5063461;28;20216;-49
2023/05/04 06:09:41;;;;;;;9.87;3.87;;;7.20;99.90;;;;;;5070927;28;20207;-50
2023/05/04 06:12:12;;;;;;;7.90;3.83;;;7.30;99.90;;;;;;5069761;28;20206;-49
2023/05/04 06:14:40;;;;;;;6.57;3.97;;;7.50;99.90;;;;;;5063377;28;20202;-49
2023/05/04 06:17:07;;;;;;;8.40;3.70;;;7.60;99.90;;;;;;5079924;28;20846;-50
2023/05/04 06:19:35;;;;;;;5.87;3.77;;;7.70;99.90;;;;;;5073400;28;20710;-49
2023/05/04 06:22:02;;;;;;;7.03;3.83;;;7.70;99.90;;;;;;5074880;28;20197;-51
2023/05/04 06:24:30;;;;;;;4.43;3.20;;;7.70;99.90;;;;;;5070249;28;20247;-51
2023/05/04 06:26:57;;;;;;;7.10;3.50;;;8.10;99.90;;;;;;5080510;28;20186;-47
2023/05/04 06:29:25;;;;;;;6.13;3.40;;;8.20;99.90;;;;;;5079003;28;20279;-48
2023/05/04 06:31:53;;;;;;;6.63;3.47;;;8.30;99.90;;;;;;5063160;28;20237;-53
2023/05/04 06:34:20;;;;;;;7.50;3.20;;;8.50;99.90;;;;;;5081812;28;20193;-49
2023/05/04 06:36:47;;;;;;;9.07;3.37;;;8.70;99.90;;;;;;5065831;28;20835;-45
2023/05/04 06:39:14;;;;;;;10.77;3.00;;;8.80;99.90;;;;;;5069992;28;20916;-46
2023/05/04 06:41:41;;;;;;;5.50;2.80;;;9.00;99.90;;;;;;5084994;28;20194;-50
2023/05/04 06:44:08;;;;;;;4.37;2.53;;;9.10;99.90;;;;;;5069902;28;20213;-52
2023/05/04 06:46:35;;;;;;;6.13;2.60;;;9.20;99.90;;;;;;5063051;28;20190;-54
2023/05/04 06:49:04;;;;;;;3.40;2.30;;;9.40;99.90;;;;;;5080568;28;20222;-52
2023/05/04 06:51:31;;;;;;;3.30;2.17;;;9.60;99.90;;;;;;5069428;28;20214;-52
2023/05/04 06:53:59;;;;;;;4.30;2.20;;;9.60;99.90;;;;;;5057105;28;20190;-51
2023/05/04 06:56:28;;;;;;;3.87;2.00;;;9.40;99.90;;;;;;5070005;28;20232;-52
2023/05/04 06:58:54;;;;;;;6.13;2.20;;;9.90;99.90;;;;;;5069784;28;20237;-46
2023/05/04 07:01:21;;;;;;;4.03;2.20;;;10.10;99.90;;;;;;5071351;28;20243;-53
2023/05/04 07:03:48;;;;;;;3.83;1.83;;;10.10;99.90;;;;;;5060868;28;20206;-52
2023/05/04 07:06:16;;;;;;;3.70;1.70;;;10.20;99.90;;;;;;5070350;28;20269;-49
2023/05/04 07:08:43;;;;;;;5.80;2.67;;;10.40;99.90;;;;;;5055517;28;20218;-52
2023/05/04 07:11:10;;;;;;;4.03;1.80;;;10.50;99.90;;;;;;5068907;28;20281;-50
2023/05/04 07:13:38;;;;;;;4.67;1.93;;;10.50;99.90;;;;;;5079571;28;20190;-45
2023/05/04 07:16:06;;;;;;;8.77;2.30;;;10.60;99.90;;;;;;5074944;28;20193;-49
2023/05/04 07:18:34;;;;;;;4.50;2.10;;;10.80;99.90;;;;;;5053605;28;20228;-51
2023/05/04 07:21:01;;;;;;;12.37;2.00;;;10.80;99.90;;;;;;5075011;28;20186;-45
2023/05/04 07:23:29;;;;;;;7.80;2.00;;;10.90;99.90;;;;;;5079491;28;20202;-49
2023/05/04 07:25:55;;;;;;;3.23;1.80;;;11.00;99.90;;;;;;5073219;28;20198;-49
2023/05/04 07:28:22;;;;;;;4.47;1.63;;;11.10;99.90;;;;;;5074989;28;20213;-50
2023/05/04 07:30:49;;;;;;;4.93;1.80;;;11.20;99.90;;;;;;5075164;28;20194;-52
2023/05/04 07:33:15;;;;;;;4.93;1.60;;;11.30;99.90;;;;;;5056962;28;20202;-49
2023/05/04 07:35:42;;;;;;;3.47;1.47;;;11.40;99.90;;;;;;5081624;28;20194;-55
2023/05/04 07:38:09;;;;;;;4.03;1.70;;;11.40;99.90;;;;;;5075241;28;20335;-50
2023/05/04 07:40:37;;;;;;;6.90;1.93;;;11.50;99.90;;;;;;5075609;28;20230;-49
2023/05/04 07:43:04;;;;;;;3.47;2.17;;;11.60;99.90;;;;;;5075538;28;20263;-50
2023/05/04 07:45:31;;;;;;;1.97;1.80;;;11.70;99.90;;;;;;5079994;28;20194;-49
2023/05/04 07:47:57;;;;;;;6.67;1.97;;;11.70;99.90;;;;;;5075109;28;20255;-48
2023/05/04 07:50:24;;;;;;;4.07;1.60;;;11.80;99.90;;;;;;5064965;28;20214;-49
2023/05/04 07:52:51;;;;;;;3.87;1.80;;;12.00;99.90;;;;;;5078972;28;20190;-55
2023/05/04 07:55:17;;;;;;;5.00;2.07;;;12.10;99.90;;;;;;5081597;28;20229;-51
2023/05/04 07:57:45;;;;;;;3.03;1.90;;;12.20;99.90;;;;;;5078945;28;20236;-55
2023/05/04 08:00:14;;;;;;;4.30;1.77;;;12.20;99.90;;;;;;5068749;28;20482;-55
2023/05/04 08:02:41;;;;;;;5.47;2.00;;;12.30;99.90;;;;;;5071882;28;20214;-54
2023/05/04 08:05:09;;;;;;;5.30;1.77;;;12.20;99.90;;;;;;5060962;28;20212;-47
2023/05/04 08:07:36;;;;;;;4.10;1.60;;;12.30;99.90;;;;;;5083017;28;20239;-47
2023/05/04 08:10:03;;;;;;;2.87;1.97;;;12.30;99.90;;;;;;5065853;28;20202;-50
2023/05/04 08:12:30;;;;;;;4.03;2.00;;;12.30;99.90;;;;;;5079946;28;20182;-51
2023/05/04 08:14:58;;;;;;;4.13;2.00;;;12.40;99.90;;;;;;5067803;28;20309;-50
2023/05/04 08:17:25;;;;;;;4.63;1.70;;;12.40;99.90;;;;;;5084057;28;20218;-48
2023/05/04 08:19:53;;;;;;;2.77;1.77;;;12.40;99.90;;;;;;5061897;28;20213;-52
2023/05/04 08:22:20;;;;;;;3.37;1.50;;;12.40;99.90;;;;;;5081779;28;20233;-51
2023/05/04 08:24:47;;;;;;;5.10;2.00;;;12.50;99.90;;;;;;5068712;28;20694;-55
2023/05/04 08:27:14;;;;;;;4.47;1.80;;;12.50;99.90;;;;;;5064329;28;20299;-52
2023/05/04 08:29:40;;;;;;;4.77;1.50;;;12.60;99.90;;;;;;5070645;28;20225;-50
2023/05/04 08:32:09;;;;;;;4.20;1.73;;;12.80;99.90;;;;;;5072836;28;20203;-46
2023/05/04 08:34:37;;;;;;;4.77;1.70;;;12.80;99.90;;;;;;5076887;28;20194;-47
2023/05/04 08:37:04;;;;;;;3.97;1.67;;;12.80;99.90;;;;;;5055303;28;20276;-47
2023/05/04 08:39:30;;;;;;;4.83;1.80;;;12.90;99.90;;;;;;5078938;28;20954;-52
2023/05/04 08:41:57;;;;;;;4.27;1.70;;;13.00;99.90;;;;;;5063659;28;20190;-51
2023/05/04 08:44:24;;;;;;;4.33;1.40;;;13.10;99.90;;;;;;5078902;28;20277;-48
2023/05/04 08:46:52;;;;;;;2.03;1.40;;;13.20;99.90;;;;;;5073438;28;20201;-51
2023/05/04 08:49:21;;;;;;;3.20;1.60;;;13.30;99.90;;;;;;5079262;28;20197;-47
2023/05/04 08:51:49;;;;;;;4.90;2.03;;;13.50;99.90;;;;;;5055639;28;20676;-50
2023/05/04 08:54:16;;;;;;;3.90;1.60;;;13.50;99.90;;;;;;5069569;28;20194;-49
2023/05/04 08:56:45;;;;;;;5.50;2.17;;;13.50;99.90;;;;;;5060631;28;20206;-52
2023/05/04 08:59:19;;;;;;;3.63;1.80;;;13.50;99.90;;;;;;5074438;28;20197;-50
2023/05/04 09:01:49;;;;;;;4.37;1.63;;;13.60;99.90;;;;;;5066891;28;20203;-51
2023/05/04 09:04:17;;;;;;;5.83;1.50;;;13.70;99.90;;;;;;5077053;28;20467;-46
2023/05/04 09:06:46;;;;;;;4.17;2.10;;;13.80;99.90;;;;;;5058806;28;20198;-53
2023/05/04 09:09:13;;;;;;;4.47;1.47;;;13.80;99.90;;;;;;5069781;28;20807;-52
2023/05/04 09:11:40;;;;;;;3.23;1.83;;;13.70;99.90;;;;;;5067147;28;20206;-51
2023/05/04 09:14:06;;;;;;;3.43;1.47;;;13.80;99.90;;;;;;5078876;28;20197;-47
2023/05/04 09:16:35;;;;;;;10.93;1.83;;;13.90;99.90;;;;;;5069169;28;20203;-48
2023/05/04 09:19:03;;;;;;;3.50;1.23;;;14.00;99.90;;;;;;5073589;28;20206;-53
2023/05/04 09:21:31;;;;;;;3.90;1.60;;;14.10;99.90;;;;;;5068112;28;20235;-50
2023/05/04 09:23:59;;;;;;;6.07;1.50;;;14.10;99.70;;;;;;5045230;28;20210;-49
2023/05/04 09:26:28;;;;;;;3.10;1.70;;;14.10;99.80;;;;;;5078509;28;20205;-47
2023/05/04 09:28:55;;;;;;;4.27;1.87;;;14.20;99.40;;;;;;5064821;28;20300;-51
2023/05/04 09:31:22;;;;;;;7.37;1.83;;;14.30;99.20;;;;;;5071544;28;20198;-46
2023/05/04 09:33:49;;;;;;;3.50;1.73;;;14.30;99.10;;;;;;5069918;28;20196;-52
2023/05/04 09:36:19;;;;;;;2.67;1.50;;;14.30;99.20;;;;;;5064983;28;20942;-50
2023/05/04 09:38:46;;;;;;;4.70;1.50;;;14.40;98.90;;;;;;5050968;28;20345;-52
2023/05/04 09:41:14;;;;;;;4.33;1.43;;;14.50;98.80;;;;;;5074375;28;20201;-52
2023/05/04 09:43:43;;;;;;;5.40;1.70;;;14.60;98.80;;;;;;5068408;28;20208;-52
2023/05/04 09:46:19;;;;;;;5.37;1.77;;;14.70;98.40;;;;;;5072247;28;20599;-49
2023/05/04 09:48:53;;;;;;;4.23;2.10;;;14.80;98.50;;;;;;5068877;28;20218;-55
2023/05/04 09:51:22;;;;;;;5.07;2.03;;;14.90;98.10;;;;;;5067497;28;20285;-48
2023/05/04 09:53:51;;;;;;;2.47;1.73;;;14.90;98.00;;;;;;5054464;28;20672;-52
2023/05/04 09:56:30;;;;;;;4.00;1.83;;;14.90;97.90;;;;;;5079062;28;20213;-47
2023/05/04 09:58:58;;;;;;;3.00;1.40;;;15.00;97.10;;;;;;5068444;28;20210;-54
2023/05/04 10:01:28;;;;;;;2.97;1.63;;;15.00;96.80;;;;;;5076094;28;20194;-48
2023/05/04 10:03:55;;;;;;;3.50;1.70;;;15.00;96.80;;;;;;5063616;28;20193;-54
2023/05/04 10:06:24;;;;;;;3.33;1.47;;;14.90;95.70;;;;;;5069294;28;20207;-53
2023/05/04 10:08:51;;;;;;;2.07;1.30;;;15.00;95.90;;;;;;5056687;28;20206;-54
2023/05/04 10:11:20;;;;;;;5.60;1.70;;;15.10;96.10;;;;;;5069747;28;20686;-45
2023/05/04 10:13:48;;;;;;;3.20;1.50;;;15.20;95.70;;;;;;5062635;28;20234;-55
2023/05/04 10:16:27;;;;;;;3.97;1.53;;;15.30;95.40;;;;;;5065347;28;20356;-51
2023/05/04 10:19:26;;;;;;;7.27;1.70;;;15.50;94.90;;;;;;5052222;28;20256;-53
2023/05/04 10:22:07;;;;;;;3.30;1.17;;;15.50;94.10;;;;;;5061511;28;20199;-53
2023/05/04 10:24:56;;;;;;;5.13;1.60;;;15.40;93.60;;;;;;5071764;28;20227;-52
2023/05/04 10:27:43;;;;;;;7.07;2.00;;;15.50;94.00;;;;;;5071348;28;20279;-51
2023/05/04 10:30:12;;;;;;;3.33;1.70;;;15.50;94.00;;;;;;5065132;28;20201;-52
2023/05/04 10:32:40;;;;;;;24.73;7.70;;;15.60;94.10;;;;;;5066943;28;20210;-53
2023/05/04 10:35:08;;;;;;;5.73;2.40;;;15.70;94.00;;;;;;5062549;28;20574;-48
2023/05/04 10:37:36;;;;;;;5.80;1.80;;;15.70;93.10;;;;;;5073656;28;20224;-51
2023/05/04 10:40:04;;;;;;;3.37;2.03;;;15.70;92.70;;;;;;5049191;28;21257;-45
2023/05/04 10:42:42;;;;;;;4.13;1.83;;;15.60;92.70;;;;;;5077582;28;20194;-52
2023/05/04 10:45:09;;;;;;;3.53;1.53;;;15.70;93.10;;;;;;5062330;28;20289;-49
2023/05/04 10:47:39;;;;;;;5.60;1.97;;;15.80;92.30;;;;;;5067985;28;20268;-55
2023/05/04 10:50:07;;;;;;;4.67;1.67;;;15.70;92.30;;;;;;5071685;28;20203;-57
2023/05/04 10:52:46;;;;;;;6.30;2.00;;;15.80;92.40;;;;;;5072110;28;20202;-47
2023/05/04 10:55:13;;;;;;;2.23;1.30;;;15.90;91.90;;;;;;5071633;28;20944;-44
2023/05/04 10:57:49;;;;;;;3.13;1.50;;;16.00;92.30;;;;;;5049908;28;21886;-50
2023/05/04 11:00:17;;;;;;;1.43;1.23;;;16.10;92.10;;;;;;5058417;28;20904;-55
2023/05/04 11:02:45;;;;;;;3.60;1.80;;;16.10;90.90;;;;;;5068598;28;20239;-50
2023/05/04 11:05:16;;;;;;;3.67;1.70;;;16.10;90.80;;;;;;5077188;28;20206;-47
2023/05/04 11:07:44;;;;;;;4.93;1.87;;;16.20;90.90;;;;;;5074554;28;20219;-53
2023/05/04 11:10:22;;;;;;;4.50;1.37;;;16.20;90.40;;;;;;5080279;28;20198;-48
2023/05/04 11:12:50;;;;;;;3.43;1.63;;;16.10;90.30;;;;;;5059274;28;20198;-56
2023/05/04 11:15:17;;;;;;;4.43;1.60;;;16.30;90.30;;;;;;5070583;28;20194;-47
2023/05/04 11:17:48;;;;;;;3.77;1.70;;;16.30;89.00;;;;;;5070372;28;20220;-56
2023/05/04 11:20:22;;;;;;;4.70;1.40;;;16.40;90.40;;;;;;5072037;28;20220;-47
2023/05/04 11:22:49;;;;;;;2.90;1.37;;;16.50;89.70;;;;;;5076241;28;20750;-49
2023/05/04 11:25:17;;;;;;;3.40;1.53;;;16.60;89.60;;;;;;5073892;28;20194;-55
2023/05/04 11:27:44;;;;;;;3.23;1.50;;;16.70;87.80;;;;;;5048239;28;20218;-51
2023/05/04 11:30:13;;;;;;;2.73;1.57;;;16.60;88.10;;;;;;5073141;28;20209;-54
2023/05/04 11:32:42;;;;;;;2.00;1.40;;;16.70;89.90;;;;;;5068386;28;20220;-48
2023/05/04 11:35:14;;;;;;;4.60;1.70;;;16.90;86.60;;;;;;5074304;28;20186;-54
2023/05/04 11:37:43;;;;;;;4.97;1.70;;;17.00;88.00;;;;;;5073766;28;20924;-50
2023/05/04 11:40:11;;;;;;;4.13;1.43;;;17.10;87.00;;;;;;5073109;28;20972;-54
2023/05/04 11:42:40;;;;;;;7.70;1.83;;;17.10;86.60;;;;;;5056713;28;20197;-48
2023/05/04 11:45:10;;;;;;;3.83;1.13;;;17.10;86.30;;;;;;5078827;28;20189;-53
2023/05/04 11:47:38;;;;;;;2.93;1.60;;;17.10;85.80;;;;;;5070796;28;20294;-51
2023/05/04 11:50:07;;;;;;;3.27;1.60;;;17.10;85.60;;;;;;5077790;28;20202;-56
2023/05/04 11:52:35;;;;;;;3.63;1.53;;;17.10;84.30;;;;;;5063944;28;20198;-51
2023/05/04 11:55:03;;;;;;;4.63;1.70;;;17.10;84.90;;;;;;5067207;28;20283;-53
2023/05/04 11:57:30;;;;;;;2.40;1.30;;;17.20;83.10;;;;;;5051755;28;20315;-51
2023/05/04 11:59:57;;;;;;;3.27;1.30;;;17.20;83.80;;;;;;5076335;28;20204;-46
2023/05/04 12:02:25;;;;;;;4.27;1.77;;;17.10;83.00;;;;;;5069348;28;20664;-55
2023/05/04 12:04:54;;;;;;;4.53;1.77;;;17.30;82.90;;;;;;5076630;28;20225;-53
2023/05/04 12:07:21;;;;;;;1.83;1.40;;;17.50;83.30;;;;;;5061147;28;20241;-56
2023/05/04 12:09:49;;;;;;;3.27;1.10;;;17.50;83.60;;;;;;5074208;28;20210;-54
2023/05/04 12:12:19;;;;;;;1.80;1.43;;;17.50;82.40;;;;;;5072321;28;20229;-53
2023/05/04 12:14:50;;;;;;;4.43;1.50;;;17.70;82.60;;;;;;5048148;28;20202;-47
2023/05/04 12:17:17;;;;;;;3.20;1.50;;;17.80;81.50;;;;;;5072179;28;20271;-57
2023/05/04 12:19:48;;;;;;;2.30;1.57;;;17.80;81.80;;;;;;5078762;28;20225;-51
2023/05/04 12:22:16;;;;;;;4.50;1.50;;;17.80;81.30;;;;;;5066097;28;20326;-55
2023/05/04 12:24:42;;;;;;;2.87;1.23;;;17.90;80.40;;;;;;5070221;28;20190;-49
2023/05/04 12:27:12;;;;;;;3.33;1.27;;;18.00;79.50;;;;;;5073718;28;20226;-54
2023/05/04 12:29:40;;;;;;;1.80;1.30;;;18.10;77.80;;;;;;5057770;28;20210;-47
2023/05/04 12:32:07;;;;;;;2.10;1.27;;;18.10;78.50;;;;;;5074661;28;20589;-52
2023/05/04 12:34:34;;;;;;;1.93;1.40;;;18.10;78.10;;;;;;5059937;28;20210;-50
2023/05/04 12:37:01;;;;;;;4.27;1.60;;;18.00;77.50;;;;;;5072128;28;20194;-53
2023/05/04 12:39:31;;;;;;;3.47;1.50;;;17.90;76.60;;;;;;5068546;28;20293;-45
2023/05/04 12:41:58;;;;;;;3.67;1.63;;;17.90;78.20;;;;;;5079095;28;20195;-50
2023/05/04 12:44:25;;;;;;;3.33;1.80;;;17.90;77.90;;;;;;5069495;28;20190;-47
2023/05/04 12:46:53;;;;;;;2.00;1.57;;;17.90;77.50;;;;;;5063091;28;20213;-45
2023/05/04 12:49:20;;;;;;;3.23;1.57;;;17.90;78.00;;;;;;5061366;28;20618;-56
2023/05/04 12:51:47;;;;;;;4.53;1.50;;;18.00;78.40;;;;;;5075725;28;20206;-48
2023/05/04 12:54:13;;;;;;;2.03;1.23;;;18.20;78.20;;;;;;5079898;28;20569;-53
2023/05/04 12:56:41;;;;;;;3.30;1.30;;;18.40;76.80;;;;;;5081060;28;20209;-48
2023/05/04 12:59:09;;;;;;;3.43;1.30;;;18.70;78.20;;;;;;5077287;28;20222;-53